Time;durP1;ratioP1;P1;durP2;ratioP2;P2;SDS_P1;SDS_P2;PMS_P1;PMS_P2;Temp;Humidity;BMP_temperature;BMP_pressure;BME280_temperature;BME280_humidity;BME280_pressure;Samples;Min_cycle;Max_cycle;Signal;HPM_P1;HPM_P2
2021/10/13 00:01:51;;;;;;;;;6.25;6.25;;;;;;;;5080691;27;48601;-74
2021/10/13 00:04:16;;;;;;;;;21.75;21.00;;;;;;;;5078677;27;45379;-75
2021/10/13 00:06:41;;;;;;;;;9.00;8.00;;;;;;;;5077577;27;46161;-76
2021/10/13 00:09:07;;;;;;;;;7.50;7.50;;;;;;;;5073573;27;45303;-75
2021/10/13 00:11:33;;;;;;;;;6.00;6.00;;;;;;;;5088042;27;45216;-74
2021/10/13 00:13:59;;;;;;;;;7.50;6.50;;;;;;;;5086251;27;45241;-74
2021/10/13 00:16:25;;;;;;;;;10.00;10.00;;;;;;;;5083502;27;46296;-74
2021/10/13 00:18:50;;;;;;;;;9.50;9.00;;;;;;;;5078447;27;45323;-75
2021/10/13 00:21:15;;;;;;;;;7.75;7.75;;;;;;;;5075681;27;45313;-75
2021/10/13 00:23:41;;;;;;;;;7.25;7.25;;;;;;;;5060798;28;45400;-76
2021/10/13 00:26:06;;;;;;;;;8.25;8.25;;;;;;;;5060360;27;46678;-73
2021/10/13 00:28:31;;;;;;;;;8.00;8.00;;;;;;;;5078327;27;45470;-74
2021/10/13 00:30:56;;;;;;;;;10.50;8.50;;;;;;;;5078260;27;45492;-75
2021/10/13 00:33:21;;;;;;;;;7.25;7.00;;;;;;;;5074805;27;45722;-73
2021/10/13 00:35:47;;;;;;;;;6.25;6.25;;;;;;;;5077159;27;47310;-73
2021/10/13 00:38:12;;;;;;;;;7.00;6.00;;;;;;;;5078009;27;45451;-74
2021/10/13 00:40:37;;;;;;;;;9.75;7.75;;;;;;;;5077993;27;45497;-74
2021/10/13 00:43:02;;;;;;;;;9.50;9.50;;;;;;;;5078349;27;45556;-74
2021/10/13 00:45:28;;;;;;;;;8.50;8.50;;;;;;;;5077438;27;47084;-73
2021/10/13 00:47:53;;;;;;;;;7.75;7.75;;;;;;;;5076290;27;45984;-74
2021/10/13 00:50:18;;;;;;;;;7.50;7.50;;;;;;;;5080299;27;45520;-74
2021/10/13 00:52:44;;;;;;;;;7.75;6.75;;;;;;;;5078082;27;45459;-74
2021/10/13 00:55:17;;;;;;;;;11.25;11.25;;;;;;;;5077528;27;46072;-73
2021/10/13 00:57:42;;;;;;;;;10.75;9.00;;;;;;;;5077782;27;45401;-74
2021/10/13 01:00:08;;;;;;;;;10.00;10.00;;;;;;;;5073701;27;45620;-74
2021/10/13 01:02:41;;;;;;;;;11.00;8.75;;;;;;;;5080049;27;45404;-74
2021/10/13 01:05:06;;;;;;;;;12.00;10.50;;;;;;;;5076851;27;46672;-74
2021/10/13 01:07:35;;;;;;;;;11.50;9.75;;;;;;;;5077693;27;45428;-73
2021/10/13 01:10:18;;;;;;;;;11.00;10.00;;;;;;;;5077701;27;45461;-73
2021/10/13 01:13:02;;;;;;;;;10.50;9.25;;;;;;;;5076387;27;45550;-75
2021/10/13 01:15:49;;;;;;;;;10.50;10.50;;;;;;;;5074502;27;47363;-75
2021/10/13 01:18:22;;;;;;;;;8.25;8.25;;;;;;;;5059192;27;45498;-75
2021/10/13 01:20:59;;;;;;;;;10.75;9.50;;;;;;;;5078146;27;45432;-75
2021/10/13 01:23:33;;;;;;;;;8.50;8.25;;;;;;;;5081896;27;45453;-75
2021/10/13 01:26:24;;;;;;;;;12.00;10.50;;;;;;;;5079888;27;45390;-75
2021/10/13 01:28:51;;;;;;;;;9.75;9.00;;;;;;;;5077165;27;45399;-74
2021/10/13 01:31:22;;;;;;;;;12.25;12.00;;;;;;;;5081255;27;45378;-75
2021/10/13 01:33:52;;;;;;;;;8.25;8.25;;;;;;;;5062957;27;45518;-75
2021/10/13 01:36:22;;;;;;;;;11.25;7.00;;;;;;;;5078004;27;47210;-75
2021/10/13 01:38:49;;;;;;;;;6.50;6.50;;;;;;;;5079295;27;45358;-76
2021/10/13 01:41:16;;;;;;;;;9.25;8.00;;;;;;;;5082918;27;45463;-76
2021/10/13 01:43:42;;;;;;;;;8.25;7.75;;;;;;;;5081177;27;45289;-75
2021/10/13 01:46:09;;;;;;;;;6.50;6.50;;;;;;;;5080860;27;46158;-75
2021/10/13 01:48:35;;;;;;;;;9.00;7.25;;;;;;;;5062126;27;46061;-75
2021/10/13 01:51:00;;;;;;;;;8.75;8.75;;;;;;;;5076606;27;45438;-74
2021/10/13 01:53:26;;;;;;;;;5.00;5.00;;;;;;;;5081749;27;45459;-75
2021/10/13 01:55:53;;;;;;;;;6.75;5.00;;;;;;;;5079385;27;46224;-75
2021/10/13 01:58:18;;;;;;;;;7.50;6.25;;;;;;;;5080944;27;45406;-75
2021/10/13 02:00:46;;;;;;;;;8.25;6.00;;;;;;;;5080735;27;45473;-75
2021/10/13 02:03:13;;;;;;;;;7.75;6.25;;;;;;;;5077118;27;45468;-75
2021/10/13 02:05:38;;;;;;;;;7.75;7.00;;;;;;;;5081159;27;45427;-74
2021/10/13 02:08:04;;;;;;;;;7.75;6.75;;;;;;;;5081037;27;45351;-75
2021/10/13 02:10:30;;;;;;;;;10.00;8.75;;;;;;;;5080725;27;45351;-74
2021/10/13 02:12:57;;;;;;;;;9.25;8.00;;;;;;;;5080772;27;45400;-75
2021/10/13 02:15:24;;;;;;;;;10.25;9.00;;;;;;;;5078171;27;47116;-75
2021/10/13 02:17:51;;;;;;;;;8.50;8.00;;;;;;;;5078675;27;45571;-74
2021/10/13 02:20:17;;;;;;;;;8.00;7.00;;;;;;;;5064054;28;45480;-74
2021/10/13 02:22:43;;;;;;;;;6.50;6.50;;;;;;;;5080251;27;45360;-75
2021/10/13 02:25:09;;;;;;;;;7.00;4.50;;;;;;;;5080246;27;45556;-74
2021/10/13 02:27:39;;;;;;;;;8.75;6.00;;;;;;;;5079631;27;45360;-75
2021/10/13 02:30:06;;;;;;;;;7.00;5.50;;;;;;;;5059327;28;45496;-75
2021/10/13 02:32:31;;;;;;;;;7.00;7.00;;;;;;;;5081194;27;45495;-75
2021/10/13 02:34:57;;;;;;;;;8.25;8.25;;;;;;;;5078079;27;46235;-75
2021/10/13 02:37:22;;;;;;;;;5.25;5.25;;;;;;;;5080106;27;45515;-75
2021/10/13 02:39:47;;;;;;;;;8.50;5.25;;;;;;;;5080261;27;45453;-75
2021/10/13 02:42:12;;;;;;;;;9.00;7.00;;;;;;;;5077230;27;45491;-74
2021/10/13 02:44:38;;;;;;;;;5.00;5.00;;;;;;;;5082581;27;45337;-74
2021/10/13 02:47:10;;;;;;;;;5.50;5.50;;;;;;;;5081790;27;45496;-74
2021/10/13 02:49:54;;;;;;;;;9.00;8.00;;;;;;;;5079894;27;45486;-74
2021/10/13 02:52:28;;;;;;;;;9.75;8.75;;;;;;;;5079884;27;45450;-74
2021/10/13 02:54:56;;;;;;;;;12.00;10.75;;;;;;;;5079444;27;46350;-74
2021/10/13 02:57:22;;;;;;;;;7.00;5.25;;;;;;;;5077395;27;45370;-74
2021/10/13 02:59:50;;;;;;;;;7.75;7.75;;;;;;;;5078023;27;45298;-74
2021/10/13 03:02:17;;;;;;;;;7.00;6.25;;;;;;;;5081597;27;45263;-74
2021/10/13 03:04:46;;;;;;;;;9.00;8.00;;;;;;;;5080581;27;46233;-74
2021/10/13 03:07:13;;;;;;;;;7.75;6.00;;;;;;;;5079640;27;45555;-74
2021/10/13 03:09:40;;;;;;;;;6.75;6.00;;;;;;;;5078470;27;45442;-74
2021/10/13 03:12:06;;;;;;;;;5.50;5.50;;;;;;;;5074227;27;45494;-74
2021/10/13 03:14:32;;;;;;;;;11.25;6.75;;;;;;;;5088572;27;46988;-74
2021/10/13 03:16:58;;;;;;;;;7.50;6.00;;;;;;;;5079719;27;45364;-74
2021/10/13 03:19:25;;;;;;;;;7.00;7.00;;;;;;;;5078770;27;45504;-75
2021/10/13 03:21:51;;;;;;;;;5.25;5.25;;;;;;;;5079218;27;45459;-75
2021/10/13 03:24:17;;;;;;;;;9.50;6.00;;;;;;;;5076213;27;45385;-76
2021/10/13 03:26:46;;;;;;;;;9.50;5.50;;;;;;;;5079154;27;45374;-75
2021/10/13 03:29:11;;;;;;;;;6.00;6.00;;;;;;;;5080951;27;45295;-76
2021/10/13 03:31:36;;;;;;;;;6.00;6.00;;;;;;;;5079384;27;45297;-74
2021/10/13 03:34:02;;;;;;;;;5.00;5.00;;;;;;;;5079187;27;46214;-75
2021/10/13 03:36:27;;;;;;;;;6.25;4.50;;;;;;;;5077896;27;45415;-74
2021/10/13 03:38:52;;;;;;;;;1.50;1.00;;;;;;;;5076552;27;45668;-75
2021/10/13 03:41:17;;;;;;;;;5.75;2.50;;;;;;;;5081407;27;45228;-75
2021/10/13 03:43:49;;;;;;;;;4.00;4.00;;;;;;;;5078567;27;46294;-74
2021/10/13 03:46:21;;;;;;;;;5.00;4.00;;;;;;;;5078866;27;45393;-74
2021/10/13 03:48:48;;;;;;;;;7.25;5.25;;;;;;;;5076790;27;45352;-74
2021/10/13 03:51:13;;;;;;;;;6.75;5.75;;;;;;;;5074231;27;45351;-73
2021/10/13 03:53:39;;;;;;;;;5.50;5.50;;;;;;;;5079210;27;45441;-74
2021/10/13 03:56:04;;;;;;;;;5.25;4.25;;;;;;;;5079695;27;45301;-74
2021/10/13 03:58:29;;;;;;;;;8.00;7.00;;;;;;;;5078353;27;45191;-74
2021/10/13 04:00:54;;;;;;;;;6.50;6.00;;;;;;;;5078530;27;45451;-74
2021/10/13 04:03:19;;;;;;;;;11.25;9.75;;;;;;;;5075744;27;46316;-74
2021/10/13 04:05:45;;;;;;;;;6.75;6.75;;;;;;;;5077858;27;45260;-75
2021/10/13 04:08:10;;;;;;;;;6.00;5.00;;;;;;;;5079840;27;45213;-74
2021/10/13 04:10:35;;;;;;;;;8.25;8.00;;;;;;;;5078696;27;45387;-75
2021/10/13 04:13:00;;;;;;;;;6.00;6.00;;;;;;;;5078162;27;45279;-73
2021/10/13 04:15:25;;;;;;;;;8.00;7.00;;;;;;;;5076937;27;45312;-73
2021/10/13 04:17:51;;;;;;;;;3.50;3.50;;;;;;;;5075291;27;45446;-74
2021/10/13 04:20:16;;;;;;;;;8.50;5.50;;;;;;;;5080494;27;45487;-74
2021/10/13 04:22:41;;;;;;;;;8.00;7.50;;;;;;;;5078071;27;46358;-73
2021/10/13 04:25:07;;;;;;;;;8.50;5.00;;;;;;;;5077989;27;45318;-74
2021/10/13 04:27:32;;;;;;;;;8.25;7.75;;;;;;;;5075844;27;45286;-74
2021/10/13 04:29:57;;;;;;;;;8.50;8.00;;;;;;;;5074377;27;45256;-73
2021/10/13 04:32:22;;;;;;;;;9.50;6.50;;;;;;;;5078156;27;45245;-75
2021/10/13 04:34:48;;;;;;;;;8.00;6.00;;;;;;;;5077407;27;45645;-78
2021/10/13 04:37:14;;;;;;;;;8.00;6.75;;;;;;;;5078071;27;45845;-74
2021/10/13 04:39:39;;;;;;;;;12.00;11.00;;;;;;;;5077596;27;45604;-73
2021/10/13 04:42:05;;;;;;;;;5.25;5.25;;;;;;;;5073173;28;47181;-75
2021/10/13 04:44:30;;;;;;;;;10.25;9.00;;;;;;;;5079818;27;45335;-74
2021/10/13 04:46:55;;;;;;;;;9.00;6.25;;;;;;;;5059555;28;45520;-73
2021/10/13 04:49:20;;;;;;;;;9.00;7.75;;;;;;;;5077657;27;45528;-73
2021/10/13 04:51:45;;;;;;;;;12.75;9.50;;;;;;;;5077721;27;45978;-73
2021/10/13 04:54:11;;;;;;;;;9.00;8.00;;;;;;;;5073405;27;45474;-72
2021/10/13 04:56:37;;;;;;;;;8.50;7.00;;;;;;;;5078015;27;45514;-72
2021/10/13 04:59:02;;;;;;;;;10.25;7.50;;;;;;;;5077441;27;45597;-74
2021/10/13 05:01:27;;;;;;;;;7.75;7.75;;;;;;;;5076828;27;46230;-74
2021/10/13 05:03:52;;;;;;;;;9.25;5.75;;;;;;;;5077104;27;45709;-74
2021/10/13 05:06:18;;;;;;;;;9.25;7.75;;;;;;;;5072887;27;45394;-75
2021/10/13 05:08:43;;;;;;;;;14.00;12.75;;;;;;;;5058132;28;45494;-74
2021/10/13 05:11:08;;;;;;;;;11.25;7.75;;;;;;;;5077011;27;45909;-73
2021/10/13 05:13:33;;;;;;;;;10.75;9.25;;;;;;;;5077207;27;45406;-73
2021/10/13 05:15:58;;;;;;;;;11.25;8.00;;;;;;;;5076840;27;45505;-74
2021/10/13 05:18:24;;;;;;;;;7.00;7.00;;;;;;;;5074822;27;45446;-74
2021/10/13 05:20:49;;;;;;;;;8.25;8.00;;;;;;;;5074800;27;45587;-73
2021/10/13 05:23:14;;;;;;;;;12.25;8.50;;;;;;;;5077914;27;45307;-74
2021/10/13 05:25:39;;;;;;;;;10.75;10.75;;;;;;;;5077247;27;45339;-76
2021/10/13 05:28:04;;;;;;;;;12.75;9.25;;;;;;;;5077129;27;45424;-75
2021/10/13 05:30:30;;;;;;;;;18.25;15.25;;;;;;;;5075358;27;46157;-78
2021/10/13 05:32:55;;;;;;;;;16.50;15.50;;;;;;;;5073540;27;45398;-76
2021/10/13 05:35:21;;;;;;;;;16.25;13.50;;;;;;;;5078786;27;45295;-79
2021/10/13 05:37:46;;;;;;;;;13.50;11.25;;;;;;;;5076837;27;45224;-75
2021/10/13 05:40:11;;;;;;;;;14.25;13.00;;;;;;;;5076684;27;46230;-75
2021/10/13 05:42:37;;;;;;;;;16.25;13.75;;;;;;;;5077004;27;46336;-76
2021/10/13 05:45:02;;;;;;;;;13.25;12.00;;;;;;;;5072145;27;45278;-76
2021/10/13 05:47:28;;;;;;;;;14.00;9.75;;;;;;;;5060103;28;45380;-75
2021/10/13 05:49:53;;;;;;;;;13.75;10.50;;;;;;;;5074277;27;46289;-75
2021/10/13 05:52:18;;;;;;;;;17.50;14.25;;;;;;;;5076178;27;45458;-74
2021/10/13 05:54:43;;;;;;;;;16.25;13.75;;;;;;;;5076250;27;45340;-74
2021/10/13 05:57:09;;;;;;;;;12.75;9.75;;;;;;;;5072565;27;45289;-75
2021/10/13 05:59:37;;;;;;;;;14.50;13.50;;;;;;;;5077601;27;47057;-76
2021/10/13 06:02:02;;;;;;;;;11.00;9.50;;;;;;;;5076656;27;45478;-75
2021/10/13 06:04:27;;;;;;;;;13.50;12.75;;;;;;;;5076354;27;45399;-73
2021/10/13 06:06:52;;;;;;;;;10.25;10.25;;;;;;;;5079033;27;45308;-75
2021/10/13 06:09:18;;;;;;;;;15.25;13.25;;;;;;;;5075437;27;46093;-75
2021/10/13 06:11:43;;;;;;;;;16.75;14.25;;;;;;;;5079819;27;45383;-76
2021/10/13 06:14:08;;;;;;;;;18.25;17.25;;;;;;;;5080676;27;45433;-75
2021/10/13 06:16:33;;;;;;;;;17.75;15.00;;;;;;;;5079576;27;45295;-74
2021/10/13 06:18:58;;;;;;;;;14.25;12.50;;;;;;;;5079407;27;45445;-75
2021/10/13 06:21:24;;;;;;;;;13.00;12.00;;;;;;;;5076860;27;45424;-74
2021/10/13 06:23:49;;;;;;;;;11.25;9.25;;;;;;;;5077148;27;45295;-75
2021/10/13 06:26:15;;;;;;;;;13.00;9.25;;;;;;;;5079054;27;45243;-74
2021/10/13 06:28:40;;;;;;;;;9.75;9.75;;;;;;;;5058869;28;46195;-74
2021/10/13 06:31:05;;;;;;;;;19.50;16.00;;;;;;;;5079062;27;45278;-74
2021/10/13 06:33:32;;;;;;;;;11.25;10.00;;;;;;;;5076746;27;45295;-76
2021/10/13 06:35:58;;;;;;;;;24.75;20.25;;;;;;;;5075937;27;45631;-74
2021/10/13 06:38:23;;;;;;;;;17.00;13.00;;;;;;;;5085470;27;46391;-75
2021/10/13 06:40:48;;;;;;;;;14.25;10.75;;;;;;;;5080858;27;45225;-75
2021/10/13 06:43:13;;;;;;;;;11.75;7.50;;;;;;;;5078618;27;45252;-74
2021/10/13 06:45:39;;;;;;;;;18.25;16.00;;;;;;;;5077406;27;45273;-76
2021/10/13 06:48:04;;;;;;;;;16.50;14.75;;;;;;;;5074193;27;48483;-76
2021/10/13 06:50:30;;;;;;;;;23.00;19.50;;;;;;;;5080360;27;45899;-75
2021/10/13 06:52:55;;;;;;;;;18.00;14.00;;;;;;;;5078480;27;45515;-75
2021/10/13 06:55:20;;;;;;;;;19.50;19.25;;;;;;;;5082840;27;45522;-74
2021/10/13 06:57:46;;;;;;;;;19.75;18.00;;;;;;;;5088264;27;47022;-75
2021/10/13 07:00:11;;;;;;;;;19.00;17.75;;;;;;;;5073957;27;45371;-76
2021/10/13 07:02:36;;;;;;;;;5.00;5.00;;;;;;;;5078982;27;45350;-75
2021/10/13 07:05:02;;;;;;;;;13.00;13.00;;;;;;;;5080157;27;45485;-74
2021/10/13 07:07:27;;;;;;;;;12.75;11.75;;;;;;;;5075666;27;46084;-75
2021/10/13 07:09:52;;;;;;;;;16.75;14.75;;;;;;;;5088219;27;45412;-76
2021/10/13 07:12:17;;;;;;;;;10.50;9.00;;;;;;;;5075316;27;45489;-74
2021/10/13 07:14:43;;;;;;;;;20.50;15.00;;;;;;;;5078341;27;45329;-76
2021/10/13 07:17:08;;;;;;;;;9.25;9.00;;;;;;;;5078396;27;46167;-76
2021/10/13 07:19:33;;;;;;;;;8.00;8.00;;;;;;;;5077279;27;47753;-75
2021/10/13 07:21:58;;;;;;;;;16.00;11.50;;;;;;;;5077446;27;45465;-76
2021/10/13 07:24:23;;;;;;;;;18.00;13.75;;;;;;;;5075154;27;45411;-75
2021/10/13 07:26:49;;;;;;;;;13.75;12.50;;;;;;;;5075806;27;46013;-77
2021/10/13 07:29:14;;;;;;;;;14.00;11.00;;;;;;;;5081457;27;45361;-78
2021/10/13 07:31:39;;;;;;;;;8.75;7.75;;;;;;;;5080454;27;45249;-76
2021/10/13 07:34:05;;;;;;;;;11.50;9.25;;;;;;;;5077772;27;45342;-75
2021/10/13 07:36:31;;;;;;;;;16.75;11.50;;;;;;;;5076192;27;45543;-76
2021/10/13 07:38:56;;;;;;;;;10.00;10.00;;;;;;;;5074513;27;45439;-76
2021/10/13 07:41:23;;;;;;;;;12.00;10.75;;;;;;;;5078818;27;45444;-75
2021/10/13 07:43:48;;;;;;;;;11.75;11.00;;;;;;;;5075993;27;45533;-75
2021/10/13 07:46:14;;;;;;;;;12.75;11.50;;;;;;;;5075915;27;46061;-76
2021/10/13 07:48:39;;;;;;;;;11.25;9.00;;;;;;;;5076970;27;45606;-76
2021/10/13 07:51:05;;;;;;;;;13.25;10.00;;;;;;;;5072910;27;45455;-75
2021/10/13 07:53:30;;;;;;;;;16.50;12.00;;;;;;;;5079065;27;45284;-75
2021/10/13 07:55:55;;;;;;;;;16.25;15.25;;;;;;;;5076012;27;46237;-75
2021/10/13 07:58:20;;;;;;;;;17.00;12.75;;;;;;;;5077054;27;45526;-75
2021/10/13 08:00:46;;;;;;;;;15.00;15.00;;;;;;;;5077072;27;45429;-75
2021/10/13 08:03:11;;;;;;;;;19.50;17.25;;;;;;;;5055007;27;45580;-76
2021/10/13 08:05:37;;;;;;;;;12.00;12.00;;;;;;;;5078671;27;45397;-75
2021/10/13 08:08:02;;;;;;;;;12.50;12.00;;;;;;;;5077560;27;45532;-74
2021/10/13 08:10:28;;;;;;;;;18.50;14.75;;;;;;;;5076568;27;45406;-76
2021/10/13 08:12:53;;;;;;;;;14.50;12.00;;;;;;;;5077176;27;45365;-75
2021/10/13 08:15:18;;;;;;;;;17.00;14.25;;;;;;;;5072737;27;47027;-74
2021/10/13 08:17:43;;;;;;;;;16.75;13.25;;;;;;;;5077004;27;45264;-76
2021/10/13 08:20:10;;;;;;;;;15.50;13.50;;;;;;;;5078035;27;45319;-75
2021/10/13 08:22:36;;;;;;;;;17.50;11.25;;;;;;;;5075454;27;45307;-75
2021/10/13 08:25:01;;;;;;;;;21.50;20.00;;;;;;;;5075237;27;46256;-75
2021/10/13 08:27:26;;;;;;;;;24.25;19.75;;;;;;;;5074898;27;45390;-74
2021/10/13 08:29:51;;;;;;;;;15.25;14.00;;;;;;;;5072912;27;45999;-74
2021/10/13 08:32:17;;;;;;;;;34.00;28.75;;;;;;;;5078585;27;45439;-75
2021/10/13 08:34:42;;;;;;;;;12.25;12.00;;;;;;;;5058240;28;46207;-74
2021/10/13 08:37:08;;;;;;;;;9.75;7.75;;;;;;;;5076289;27;45259;-75
2021/10/13 08:39:33;;;;;;;;;17.00;17.00;;;;;;;;5075447;27;45554;-75
2021/10/13 08:41:59;;;;;;;;;16.50;14.75;;;;;;;;5072695;27;45355;-76
2021/10/13 08:44:25;;;;;;;;;14.00;11.25;;;;;;;;5078141;27;46519;-75
2021/10/13 08:46:50;;;;;;;;;12.50;10.25;;;;;;;;5076331;27;45264;-75
2021/10/13 08:49:16;;;;;;;;;15.75;12.75;;;;;;;;5075901;27;45685;-74
2021/10/13 08:51:41;;;;;;;;;14.75;13.25;;;;;;;;5076066;27;45517;-76
2021/10/13 08:54:06;;;;;;;;;21.50;15.50;;;;;;;;5071696;27;46243;-75
2021/10/13 08:56:32;;;;;;;;;7.75;7.75;;;;;;;;5078026;27;45466;-75
2021/10/13 08:58:57;;;;;;;;;20.50;15.75;;;;;;;;5076558;27;45477;-74
2021/10/13 09:01:23;;;;;;;;;12.50;8.00;;;;;;;;5074931;27;45374;-75
2021/10/13 09:03:55;;;;;;;;;10.25;9.25;;;;;;;;5074164;27;45892;-75
2021/10/13 09:06:24;;;;;;;;;7.50;7.00;;;;;;;;5073332;27;45364;-75
2021/10/13 09:08:52;;;;;;;;;7.75;7.75;;;;;;;;5056269;28;45455;-74
2021/10/13 09:11:28;;;;;;;;;6.50;6.50;;;;;;;;5076305;27;45276;-73
2021/10/13 09:14:03;;;;;;;;;7.25;6.25;;;;;;;;5075314;27;45524;-75
2021/10/13 09:16:28;;;;;;;;;8.00;5.50;;;;;;;;5075469;27;45324;-74
2021/10/13 09:18:57;;;;;;;;;7.00;6.50;;;;;;;;5075451;27;45404;-74
2021/10/13 09:21:42;;;;;;;;;10.25;7.75;;;;;;;;5073290;27;45615;-76
2021/10/13 09:24:08;;;;;;;;;13.00;10.25;;;;;;;;5054665;28;47235;-75
2021/10/13 09:26:34;;;;;;;;;10.00;10.00;;;;;;;;5084297;27;45432;-74
2021/10/13 09:28:59;;;;;;;;;8.75;8.75;;;;;;;;5076261;27;45570;-74
2021/10/13 09:31:28;;;;;;;;;10.50;6.50;;;;;;;;5075183;27;45483;-74
2021/10/13 09:33:54;;;;;;;;;8.00;8.00;;;;;;;;5075206;27;46245;-73
2021/10/13 09:36:19;;;;;;;;;8.50;8.50;;;;;;;;5072396;27;45519;-74
2021/10/13 09:38:44;;;;;;;;;9.50;7.00;;;;;;;;5075144;27;45597;-75
2021/10/13 09:41:10;;;;;;;;;11.75;9.00;;;;;;;;5075974;27;45536;-75
2021/10/13 09:43:36;;;;;;;;;6.00;5.00;;;;;;;;5077311;27;45444;-75
2021/10/13 09:46:04;;;;;;;;;8.25;8.25;;;;;;;;5078911;27;45413;-74
2021/10/13 09:48:30;;;;;;;;;12.25;11.00;;;;;;;;5077514;27;45348;-76
2021/10/13 09:50:55;;;;;;;;;8.50;8.50;;;;;;;;5075112;27;45290;-75
2021/10/13 09:53:26;;;;;;;;;9.50;6.75;;;;;;;;5080774;27;45673;-73
2021/10/13 09:55:51;;;;;;;;;6.50;5.25;;;;;;;;5078545;27;45505;-75
2021/10/13 09:58:24;;;;;;;;;5.75;5.00;;;;;;;;5078394;27;45542;-76
2021/10/13 10:00:50;;;;;;;;;9.00;4.75;;;;;;;;5078747;27;45410;-76
2021/10/13 10:03:16;;;;;;;;;6.00;5.00;;;;;;;;5075108;27;45539;-75
2021/10/13 10:05:41;;;;;;;;;4.75;4.25;;;;;;;;5078421;27;45346;-76
2021/10/13 10:08:09;;;;;;;;;6.00;3.50;;;;;;;;5079366;27;45616;-75
2021/10/13 10:10:35;;;;;;;;;5.00;4.00;;;;;;;;5078425;27;45571;-74
2021/10/13 10:13:07;;;;;;;;;13.00;12.00;;;;;;;;5078338;27;46181;-75
2021/10/13 10:15:39;;;;;;;;;4.75;3.75;;;;;;;;5077466;27;45403;-75
2021/10/13 10:18:26;;;;;;;;;6.25;5.75;;;;;;;;5073774;27;45375;-75
2021/10/13 10:20:52;;;;;;;;;4.00;4.00;;;;;;;;5089558;27;45461;-77
2021/10/13 10:23:29;;;;;;;;;2.00;2.00;;;;;;;;5078340;27;46219;-75
2021/10/13 10:25:56;;;;;;;;;4.33;4.33;;;;;;;;5078098;27;45670;-76
2021/10/13 10:28:39;;;;;;;;;7.00;5.00;;;;;;;;5078708;27;45373;-74
2021/10/13 10:31:23;;;;;;;;;5.00;3.00;;;;;;;;5078789;27;45272;-76
2021/10/13 10:33:49;;;;;;;;;8.00;6.25;;;;;;;;5078034;27;45559;-74
2021/10/13 10:36:15;;;;;;;;;8.00;7.00;;;;;;;;5075067;27;45536;-76
2021/10/13 10:38:50;;;;;;;;;8.50;8.00;;;;;;;;5078955;27;45435;-76
2021/10/13 10:41:15;;;;;;;;;3.33;3.33;;;;;;;;5079653;27;45276;-76
2021/10/13 10:43:40;;;;;;;;;4.00;4.00;;;;;;;;5078330;27;45445;-76
2021/10/13 10:46:05;;;;;;;;;3.67;2.67;;;;;;;;5077167;27;45291;-75
2021/10/13 10:48:44;;;;;;;;;6.00;6.00;;;;;;;;5077541;27;45692;-75
2021/10/13 10:51:10;;;;;;;;;11.33;7.33;;;;;;;;5059005;27;45463;-76
2021/10/13 10:53:38;;;;;;;;;5.00;5.00;;;;;;;;5060546;28;47717;-75
2021/10/13 10:56:22;;;;;;;;;2.67;2.33;;;;;;;;5078010;27;45466;-76
2021/10/13 10:58:59;;;;;;;;;8.25;6.50;;;;;;;;5076514;27;45443;-76
2021/10/13 11:01:24;;;;;;;;;8.33;7.00;;;;;;;;5077295;27;45534;-75
2021/10/13 11:03:50;;;;;;;;;26.75;24.25;;;;;;;;5077069;27;45473;-75
2021/10/13 11:06:28;;;;;;;;;4.00;2.00;;;;;;;;5074529;27;45454;-75
2021/10/13 11:08:55;;;;;;;;;19.75;17.25;;;;;;;;5074953;27;45305;-76
2021/10/13 11:11:21;;;;;;;;;2.33;2.33;;;;;;;;5079595;27;45427;-74
2021/10/13 11:13:55;;;;;;;;;3.00;2.00;;;;;;;;5077100;27;48529;-75
2021/10/13 11:16:20;;;;;;;;;3.00;2.00;;;;;;;;5076806;27;45502;-76
2021/10/13 11:18:46;;;;;;;;;3.33;2.00;;;;;;;;5077113;27;45375;-77
2021/10/13 11:21:11;;;;;;;;;3.00;3.00;;;;;;;;5073794;27;45357;-76
2021/10/13 11:23:37;;;;;;;;;6.00;3.67;;;;;;;;5079788;27;46265;-76
2021/10/13 11:26:02;;;;;;;;;4.67;4.33;;;;;;;;5077478;27;45329;-74
2021/10/13 11:28:35;;;;;;;;;2.67;2.67;;;;;;;;5075561;27;45645;-76
2021/10/13 11:31:03;;;;;;;;;2.67;2.67;;;;;;;;5077329;27;45462;-75
2021/10/13 11:33:28;;;;;;;;;5.33;4.00;;;;;;;;5074485;27;46474;-76
2021/10/13 11:35:59;;;;;;;;;2.67;2.67;;;;;;;;5074822;27;45435;-76
2021/10/13 11:38:24;;;;;;;;;1.33;1.33;;;;;;;;5060187;28;45530;-75
2021/10/13 11:40:49;;;;;;;;;2.00;1.00;;;;;;;;5075919;27;45445;-74
2021/10/13 11:43:18;;;;;;;;;5.00;4.00;;;;;;;;5077418;27;45903;-75
2021/10/13 11:45:50;;;;;;;;;3.00;2.00;;;;;;;;5077051;27;45378;-76
2021/10/13 11:48:22;;;;;;;;;4.00;2.33;;;;;;;;5074014;27;45517;-74
2021/10/13 11:50:48;;;;;;;;;1.67;1.67;;;;;;;;5075952;27;45410;-76
2021/10/13 11:53:13;;;;;;;;;0.33;0.33;;;;;;;;5078185;27;45228;-76
2021/10/13 11:55:39;;;;;;;;;1.00;1.00;;;;;;;;5077918;27;45590;-76
2021/10/13 11:58:05;;;;;;;;;6.00;4.67;;;;;;;;5077391;27;45219;-76
2021/10/13 12:00:31;;;;;;;;;6.00;6.00;;;;;;;;5075214;27;45479;-76
2021/10/13 12:02:59;;;;;;;;;17.00;12.00;;;;;;;;5073417;27;46381;-78
2021/10/13 12:05:33;;;;;;;;;8.00;7.00;;;;;;;;5078413;27;45309;-77
2021/10/13 12:08:10;;;;;;;;;2.00;2.00;;;;;;;;5076458;27;45336;-76
2021/10/13 12:10:36;;;;;;;;;4.00;3.00;;;;;;;;5076303;27;45333;-76
2021/10/13 12:13:02;;;;;;;;;19.75;19.00;;;;;;;;5076028;27;45944;-76
2021/10/13 12:15:28;;;;;;;;;5.33;4.00;;;;;;;;5073110;27;45602;-75
2021/10/13 12:18:07;;;;;;;;;1.33;1.33;;;;;;;;5074936;27;45272;-76
2021/10/13 12:20:32;;;;;;;;;0.67;0.67;;;;;;;;5078703;27;45505;-75
2021/10/13 12:22:57;;;;;;;;;4.00;1.00;;;;;;;;5077008;27;45626;-75
2021/10/13 12:25:22;;;;;;;;;2.00;2.00;;;;;;;;5076608;27;45383;-76
2021/10/13 12:27:47;;;;;;;;;1.00;1.00;;;;;;;;5076879;27;45548;-74
2021/10/13 12:30:13;;;;;;;;;1.00;1.00;;;;;;;;5072828;27;45444;-76
2021/10/13 12:32:38;;;;;;;;;2.00;2.00;;;;;;;;5078569;27;46237;-76
2021/10/13 12:35:13;;;;;;;;;2.00;2.00;;;;;;;;5058971;28;45374;-75
2021/10/13 12:37:45;;;;;;;;;2.00;2.00;;;;;;;;5076678;27;45424;-74
2021/10/13 12:40:14;;;;;;;;;2.00;2.00;;;;;;;;5076271;27;45497;-76
2021/10/13 12:42:39;;;;;;;;;2.67;1.00;;;;;;;;5076328;27;48022;-76
2021/10/13 12:45:04;;;;;;;;;6.33;3.67;;;;;;;;5071640;27;45529;-75
2021/10/13 12:47:30;;;;;;;;;5.33;4.00;;;;;;;;5078967;27;45356;-76
2021/10/13 12:49:57;;;;;;;;;8.33;4.33;;;;;;;;5077130;27;45363;-75
2021/10/13 12:52:22;;;;;;;;;1.67;1.67;;;;;;;;5077202;27;45327;-75
2021/10/13 12:54:50;;;;;;;;;3.33;2.33;;;;;;;;5076848;27;45359;-76
2021/10/13 12:57:20;;;;;;;;;2.33;2.33;;;;;;;;5071067;27;45418;-76
2021/10/13 12:59:46;;;;;;;;;1.00;1.00;;;;;;;;5092399;27;45379;-74
2021/10/13 13:02:11;;;;;;;;;1.33;1.33;;;;;;;;5077154;27;45340;-76
2021/10/13 13:04:37;;;;;;;;;0.00;0.00;;;;;;;;5076507;27;45423;-76
2021/10/13 13:07:05;;;;;;;;;3.00;2.00;;;;;;;;5076314;27;45738;-76
2021/10/13 13:09:30;;;;;;;;;2.33;1.33;;;;;;;;5074993;27;45470;-76
2021/10/13 13:11:56;;;;;;;;;3.33;3.00;;;;;;;;5071966;27;47190;-76
2021/10/13 13:14:21;;;;;;;;;2.00;1.00;;;;;;;;5076496;27;45425;-77
2021/10/13 13:16:46;;;;;;;;;4.33;4.33;;;;;;;;5055284;28;45514;-77
2021/10/13 13:19:13;;;;;;;;;2.00;1.00;;;;;;;;5074970;27;45392;-75
2021/10/13 13:21:39;;;;;;;;;3.67;2.67;;;;;;;;5075201;27;47533;-76
2021/10/13 13:24:04;;;;;;;;;1.00;1.00;;;;;;;;5071189;27;45536;-75
2021/10/13 13:26:31;;;;;;;;;6.33;4.00;;;;;;;;5077769;27;45367;-74
2021/10/13 13:28:56;;;;;;;;;3.67;3.00;;;;;;;;5075393;27;45385;-76
2021/10/13 13:31:22;;;;;;;;;2.67;1.00;;;;;;;;5074854;27;46908;-76
2021/10/13 13:33:47;;;;;;;;;4.00;3.00;;;;;;;;5073557;27;45442;-75
2021/10/13 13:36:19;;;;;;;;;1.67;1.33;;;;;;;;5070852;27;45276;-75
2021/10/13 13:38:45;;;;;;;;;1.00;1.00;;;;;;;;5075518;27;45489;-75
2021/10/13 13:41:10;;;;;;;;;2.67;1.00;;;;;;;;5076260;27;48489;-76
2021/10/13 13:43:35;;;;;;;;;2.00;1.00;;;;;;;;5075931;27;45519;-75
2021/10/13 13:46:00;;;;;;;;;3.67;2.00;;;;;;;;5076129;27;45536;-76
2021/10/13 13:48:28;;;;;;;;;1.00;1.00;;;;;;;;5073961;27;45371;-76
2021/10/13 13:50:53;;;;;;;;;1.33;1.33;;;;;;;;5072903;27;46382;-76
2021/10/13 13:53:18;;;;;;;;;1.00;1.00;;;;;;;;5075592;27;45384;-75
2021/10/13 13:55:44;;;;;;;;;0.67;0.67;;;;;;;;5076348;27;45532;-75
2021/10/13 13:58:10;;;;;;;;;5.00;3.00;;;;;;;;5075579;27;45346;-76
2021/10/13 14:00:35;;;;;;;;;12.75;9.75;;;;;;;;5074268;27;45573;-75
2021/10/13 14:03:00;;;;;;;;;2.00;1.00;;;;;;;;5071717;27;45439;-75
2021/10/13 14:05:25;;;;;;;;;4.67;3.00;;;;;;;;5077052;27;45588;-75
2021/10/13 14:07:51;;;;;;;;;3.67;1.00;;;;;;;;5075171;27;45420;-75
2021/10/13 14:10:16;;;;;;;;;0.33;0.33;;;;;;;;5075163;27;46377;-75
2021/10/13 14:12:42;;;;;;;;;0.67;0.67;;;;;;;;5073061;27;45466;-74
2021/10/13 14:15:08;;;;;;;;;1.67;1.67;;;;;;;;5069400;28;45355;-76
2021/10/13 14:17:34;;;;;;;;;2.00;2.00;;;;;;;;5076889;27;45451;-74
2021/10/13 14:19:59;;;;;;;;;1.00;0.67;;;;;;;;5075034;27;46112;-76
2021/10/13 14:22:24;;;;;;;;;2.33;1.33;;;;;;;;5074931;27;45477;-76
2021/10/13 14:24:50;;;;;;;;;3.33;2.67;;;;;;;;5075158;27;45307;-75
2021/10/13 14:27:15;;;;;;;;;2.67;2.33;;;;;;;;5071014;27;45485;-76
2021/10/13 14:29:40;;;;;;;;;4.33;3.33;;;;;;;;5078588;27;46129;-76
2021/10/13 14:32:05;;;;;;;;;0.67;0.67;;;;;;;;5078872;27;45572;-75
2021/10/13 14:34:31;;;;;;;;;1.00;1.00;;;;;;;;5078762;27;45300;-76